createdAt,value
2017-09-28T00:01:33.093Z,58.73
2017-09-28T00:04:01.431Z,54.27
2017-09-28T00:06:29.788Z,56.90
2017-09-28T00:08:58.851Z,60.43
2017-09-28T00:11:27.186Z,59.20
2017-09-28T00:13:55.513Z,58.53
2017-09-28T00:16:23.827Z,61.80
2017-09-28T00:18:52.889Z,57.87
2017-09-28T00:21:21.199Z,58.80
2017-09-28T00:23:50.273Z,57.20
2017-09-28T00:26:18.608Z,58.33
2017-09-28T00:28:46.930Z,60.00
2017-09-28T00:31:15.244Z,57.83
2017-09-28T00:33:44.331Z,62.67
2017-09-28T00:36:12.647Z,60.33
2017-09-28T00:38:40.957Z,60.10
2017-09-28T00:41:09.282Z,59.60
2017-09-28T00:43:37.609Z,58.40
2017-09-28T00:46:05.906Z,61.10
2017-09-28T00:48:34.232Z,57.40
2017-09-28T00:51:03.306Z,60.63
2017-09-28T00:53:31.606Z,61.10
2017-09-28T00:55:59.928Z,63.30
2017-09-28T00:58:28.232Z,62.47
2017-09-28T01:00:56.554Z,61.80
2017-09-28T01:03:24.882Z,60.07
2017-09-28T01:05:53.360Z,60.17
2017-09-28T01:08:21.676Z,63.07
2017-09-28T01:10:50.000Z,60.63
2017-09-28T01:13:19.062Z,59.50
2017-09-28T01:15:47.396Z,113.27
2017-09-28T01:18:15.773Z,132.20
2017-09-28T01:20:44.103Z,156.90
2017-09-28T01:23:12.434Z,175.73
2017-09-28T01:25:40.759Z,130.23
2017-09-28T01:28:09.531Z,133.77
2017-09-28T01:30:37.852Z,106.57
2017-09-28T01:33:06.164Z,88.37
2017-09-28T01:35:35.236Z,85.53
2017-09-28T01:38:03.562Z,72.97
2017-09-28T01:40:31.884Z,67.53
2017-09-28T01:43:00.190Z,67.83
2017-09-28T01:45:28.509Z,65.23
2017-09-28T01:47:56.950Z,65.63
2017-09-28T01:50:25.870Z,64.30
2017-09-28T01:52:54.956Z,61.27
2017-09-28T01:55:23.300Z,57.70
2017-09-28T01:57:51.598Z,65.70
2017-09-28T02:00:19.916Z,64.33
2017-09-28T02:02:48.242Z,62.20
2017-09-28T02:05:16.576Z,62.73
2017-09-28T02:07:45.646Z,61.23
2017-09-28T02:10:14.012Z,62.17
2017-09-28T02:12:42.433Z,59.60
2017-09-28T02:15:10.737Z,62.53
2017-09-28T02:17:39.059Z,65.50
2017-09-28T02:20:07.499Z,63.53
2017-09-28T02:22:35.814Z,61.77
2017-09-28T02:25:04.132Z,60.00
2017-09-28T02:27:32.446Z,57.33
2017-09-28T02:30:00.743Z,60.40
2017-09-28T02:32:29.058Z,65.00
2017-09-28T02:34:57.361Z,61.27
2017-09-28T02:37:25.678Z,58.10
2017-09-28T02:39:54.013Z,58.57
2017-09-28T02:42:22.317Z,56.33
2017-09-28T02:44:51.414Z,62.17
2017-09-28T02:47:20.502Z,57.53
2017-09-28T02:49:48.812Z,57.80
2017-09-28T02:52:17.887Z,63.07
2017-09-28T02:54:46.971Z,62.50
2017-09-28T02:57:15.280Z,58.00
2017-09-28T02:59:44.352Z,55.03
2017-09-28T03:02:12.698Z,57.97
2017-09-28T03:04:41.013Z,58.10
2017-09-28T03:07:09.311Z,58.03
2017-09-28T03:09:37.626Z,53.03
2017-09-28T03:12:05.938Z,53.53
2017-09-28T03:14:34.255Z,50.80
2017-09-28T03:17:02.566Z,58.83
2017-09-28T03:19:30.864Z,56.70
2017-09-28T03:21:59.162Z,57.87
2017-09-28T03:24:27.492Z,58.40
2017-09-28T03:26:56.575Z,57.40
2017-09-28T03:29:24.872Z,54.53
2017-09-28T03:31:53.962Z,54.57
2017-09-28T03:34:22.276Z,57.33
2017-09-28T03:36:50.662Z,60.00
2017-09-28T03:39:18.975Z,63.20
2017-09-28T03:41:47.273Z,65.77
2017-09-28T03:44:15.737Z,62.00
2017-09-28T03:46:44.039Z,62.40
2017-09-28T03:49:12.361Z,63.07
2017-09-28T03:51:41.446Z,58.23
2017-09-28T03:54:10.538Z,65.13
2017-09-28T03:56:38.839Z,62.37
2017-09-28T03:59:07.929Z,62.10
2017-09-28T04:01:37.003Z,61.97
2017-09-28T04:04:05.323Z,64.20
2017-09-28T04:06:33.759Z,59.90
2017-09-28T04:09:02.097Z,61.23
2017-09-28T04:11:30.422Z,62.00
2017-09-28T04:13:58.735Z,58.93
2017-09-28T04:16:27.825Z,59.23
2017-09-28T04:18:56.144Z,62.07
2017-09-28T04:21:24.458Z,62.53
2017-09-28T04:23:52.763Z,64.13
2017-09-28T04:26:21.082Z,63.80
2017-09-28T04:28:49.396Z,58.67
2017-09-28T04:31:17.695Z,62.07
2017-09-28T04:33:45.997Z,60.43
2017-09-28T04:36:14.331Z,58.87
2017-09-28T04:38:42.647Z,61.63
2017-09-28T04:41:10.964Z,64.77
2017-09-28T04:43:40.053Z,57.90
2017-09-28T04:46:09.119Z,60.90
2017-09-28T04:48:37.436Z,60.83
2017-09-28T04:51:06.595Z,57.97
2017-09-28T04:53:34.907Z,59.87
2017-09-28T04:56:03.211Z,56.30
2017-09-28T04:58:32.321Z,62.40
2017-09-28T05:01:00.654Z,58.20
2017-09-28T05:03:28.983Z,59.20
2017-09-28T05:05:57.304Z,58.63
2017-09-28T05:08:25.616Z,64.80
2017-09-28T05:10:53.937Z,62.70
2017-09-28T05:13:22.276Z,57.10
2017-09-28T05:15:50.682Z,60.70
2017-09-28T05:18:19.749Z,63.53
2017-09-28T05:20:48.099Z,58.53
2017-09-28T05:23:16.408Z,57.40
2017-09-28T05:25:44.757Z,57.77
2017-09-28T05:28:13.054Z,60.07
2017-09-28T05:30:41.359Z,60.60
2017-09-28T05:33:09.669Z,56.50
2017-09-28T05:35:38.727Z,61.80
2017-09-28T05:38:07.039Z,58.20
2017-09-28T05:40:36.105Z,65.47
2017-09-28T05:43:04.452Z,60.77
2017-09-28T05:45:32.776Z,60.17
2017-09-28T05:48:01.085Z,58.10
2017-09-28T05:50:30.919Z,61.93
2017-09-28T05:52:59.220Z,63.27
2017-09-28T05:55:27.531Z,62.07
2017-09-28T05:57:55.836Z,61.10
2017-09-28T06:00:24.154Z,59.37
2017-09-28T06:02:52.515Z,64.17
2017-09-28T06:05:21.642Z,64.40
2017-09-28T06:07:49.948Z,64.27
2017-09-28T06:10:18.295Z,62.23
2017-09-28T06:12:46.623Z,66.30
2017-09-28T06:15:14.923Z,65.40
2017-09-28T06:17:43.249Z,75.60
2017-09-28T06:20:11.558Z,75.80
2017-09-28T06:22:39.957Z,81.87
2017-09-28T06:25:08.259Z,82.80
2017-09-28T06:27:36.582Z,80.90
2017-09-28T06:30:04.892Z,81.47
2017-09-28T06:32:33.247Z,97.40
2017-09-28T06:35:01.577Z,93.33
2017-09-28T06:37:29.887Z,93.60
2017-09-28T06:39:58.975Z,85.17
2017-09-28T06:42:28.055Z,88.40
2017-09-28T06:44:56.364Z,86.73
2017-09-28T06:47:25.435Z,95.33
2017-09-28T06:49:53.761Z,95.63
2017-09-28T06:52:22.065Z,86.70
2017-09-28T06:54:50.363Z,94.20
2017-09-28T06:57:19.452Z,97.03
2017-09-28T06:59:47.853Z,93.33
2017-09-28T07:02:16.171Z,102.27
2017-09-28T07:04:45.256Z,105.57
2017-09-28T07:07:14.343Z,114.33
2017-09-28T07:09:42.657Z,111.30
2017-09-28T07:12:11.736Z,105.57
2017-09-28T07:14:40.824Z,122.37
2017-09-28T07:17:09.901Z,120.43
2017-09-28T07:19:38.221Z,118.13
2017-09-28T07:22:07.336Z,126.40
2017-09-28T07:24:36.405Z,116.23
2017-09-28T07:27:04.753Z,117.70
2017-09-28T07:29:33.060Z,114.23
2017-09-28T07:32:01.375Z,116.30
2017-09-28T07:34:30.485Z,102.07
2017-09-28T07:36:58.806Z,108.87
2017-09-28T07:39:27.141Z,103.17
2017-09-28T07:41:56.264Z,109.13
2017-09-28T07:44:24.567Z,113.80
2017-09-28T07:46:52.883Z,96.13
2017-09-28T07:49:21.212Z,107.63
2017-09-28T07:51:49.537Z,112.70
2017-09-28T07:54:17.857Z,101.47
2017-09-28T07:56:46.171Z,119.07
2017-09-28T07:59:14.473Z,106.63
2017-09-28T08:01:42.806Z,107.10
2017-09-28T08:04:11.117Z,111.80
2017-09-28T08:06:39.429Z,101.80
2017-09-28T08:09:07.757Z,99.67
2017-09-28T08:11:36.072Z,103.70
2017-09-28T08:14:04.393Z,97.17
2017-09-28T08:16:33.710Z,113.50
2017-09-28T08:19:02.777Z,98.53
2017-09-28T08:21:31.091Z,103.23
2017-09-28T08:24:00.159Z,93.57
2017-09-28T08:26:28.594Z,100.10
2017-09-28T08:28:56.933Z,98.97
2017-09-28T08:31:25.249Z,97.00
2017-09-28T08:33:53.568Z,102.60
2017-09-28T08:36:21.894Z,99.90
2017-09-28T08:38:51.654Z,94.70
2017-09-28T08:41:19.970Z,98.50
2017-09-28T08:43:48.309Z,96.57
2017-09-28T08:46:16.606Z,93.20
2017-09-28T08:48:44.910Z,99.57
2017-09-28T08:51:13.299Z,103.53
2017-09-28T08:53:41.626Z,114.33
2017-09-28T08:56:09.938Z,99.23
2017-09-28T08:58:38.258Z,95.20
2017-09-28T09:01:07.326Z,100.90
2017-09-28T09:03:35.673Z,91.50
2017-09-28T09:06:03.970Z,87.50
2017-09-28T09:08:32.275Z,99.43
2017-09-28T09:11:00.613Z,112.67
2017-09-28T09:13:28.931Z,112.80
2017-09-28T09:15:57.269Z,103.37
2017-09-28T09:18:25.603Z,122.50
2017-09-28T09:20:53.901Z,101.80
2017-09-28T09:23:22.212Z,111.30
2017-09-28T09:25:50.530Z,106.07
2017-09-28T09:28:18.934Z,163.63
2017-09-28T09:30:47.267Z,80.07
2017-09-28T09:33:15.568Z,82.33
2017-09-28T09:35:43.893Z,82.27
2017-09-28T09:38:13.008Z,70.83
2017-09-28T09:40:42.147Z,76.03
2017-09-28T09:43:10.478Z,79.30
2017-09-28T09:45:39.107Z,73.07
2017-09-28T09:48:07.426Z,73.70
2017-09-28T09:50:35.759Z,68.93
2017-09-28T09:53:04.087Z,60.90
2017-09-28T09:55:32.400Z,68.63
2017-09-28T09:58:01.494Z,68.23
2017-09-28T10:00:29.806Z,63.17
2017-09-28T10:02:58.104Z,58.30
2017-09-28T10:05:26.428Z,55.97
2017-09-28T10:08:02.050Z,52.93
2017-09-28T10:10:33.960Z,49.17
2017-09-28T10:13:16.485Z,57.33
2017-09-28T10:15:51.952Z,51.10
2017-09-28T10:18:20.276Z,52.37
2017-09-28T10:20:48.595Z,48.23
2017-09-28T10:23:16.917Z,47.07
2017-09-28T10:25:45.260Z,43.90
2017-09-28T10:28:13.592Z,41.60
2017-09-28T10:30:41.894Z,38.00
2017-09-28T10:33:10.982Z,37.43
2017-09-28T10:35:39.280Z,39.50
2017-09-28T10:38:08.358Z,45.87
2017-09-28T10:40:36.846Z,54.47
2017-09-28T10:43:05.195Z,39.43
2017-09-28T10:45:33.660Z,36.20
2017-09-28T10:48:01.970Z,34.03
2017-09-28T10:50:30.278Z,33.10
2017-09-28T10:52:58.608Z,36.03
2017-09-28T10:55:27.024Z,34.10
2017-09-28T10:57:55.326Z,29.47
2017-09-28T11:00:23.635Z,33.30
2017-09-28T11:02:51.953Z,36.40
2017-09-28T11:05:20.276Z,31.47
2017-09-28T11:07:48.597Z,27.97
2017-09-28T11:10:16.912Z,27.97
2017-09-28T11:12:45.447Z,28.33
2017-09-28T11:15:14.528Z,28.47
2017-09-28T11:17:43.599Z,29.07
2017-09-28T11:20:11.926Z,31.70
2017-09-28T11:22:41.022Z,29.43
2017-09-28T11:25:10.118Z,32.80
2017-09-28T11:27:39.198Z,32.70
2017-09-28T11:30:07.493Z,32.57
2017-09-28T11:32:36.593Z,31.10
2017-09-28T11:35:05.656Z,35.17
2017-09-28T11:37:33.964Z,34.17
2017-09-28T11:40:02.281Z,34.93
2017-09-28T11:42:30.594Z,35.00
2017-09-28T11:44:58.913Z,37.93
2017-09-28T11:47:27.973Z,37.37
2017-09-28T11:49:56.295Z,35.97
2017-09-28T11:52:25.370Z,36.37
2017-09-28T11:54:54.465Z,38.60
2017-09-28T11:57:22.809Z,36.27
2017-09-28T11:59:51.124Z,34.73
2017-09-28T12:02:19.463Z,34.90
2017-09-28T12:04:47.764Z,36.73
2017-09-28T12:07:16.074Z,35.30
2017-09-28T12:09:44.404Z,35.60
2017-09-28T12:12:12.716Z,37.10
2017-09-28T12:14:41.025Z,35.13
2017-09-28T12:17:09.352Z,35.60
2017-09-28T12:19:37.671Z,36.23
2017-09-28T12:22:05.980Z,33.93
2017-09-28T12:24:34.315Z,34.93
2017-09-28T12:27:02.708Z,35.20
2017-09-28T12:29:31.213Z,34.20
2017-09-28T12:31:59.525Z,34.80
2017-09-28T12:34:28.593Z,33.20
2017-09-28T12:36:56.911Z,32.03
2017-09-28T12:39:25.993Z,30.63
2017-09-28T12:41:54.317Z,32.53
2017-09-28T12:44:22.621Z,29.63
2017-09-28T12:46:50.920Z,29.93
2017-09-28T12:49:19.245Z,29.67
2017-09-28T12:51:48.969Z,29.40
2017-09-28T12:54:17.295Z,28.47
2017-09-28T12:56:45.630Z,28.03
2017-09-28T12:59:13.931Z,29.13
2017-09-28T13:01:42.266Z,28.87
2017-09-28T13:04:11.362Z,28.50
2017-09-28T13:06:39.695Z,28.63
2017-09-28T13:09:08.011Z,31.07
2017-09-28T13:11:36.317Z,31.57
2017-09-28T13:14:05.467Z,29.70
2017-09-28T13:16:33.780Z,33.30
2017-09-28T13:19:02.094Z,33.23
2017-09-28T13:21:31.192Z,34.30
2017-09-28T13:24:00.275Z,32.60
2017-09-28T13:26:28.597Z,30.87
2017-09-28T13:28:56.975Z,30.47
2017-09-28T13:31:25.280Z,29.60
2017-09-28T13:33:53.593Z,30.03
2017-09-28T13:36:21.926Z,27.03
2017-09-28T13:38:50.249Z,29.87
2017-09-28T13:41:18.609Z,31.20
2017-09-28T13:43:46.916Z,29.03
2017-09-28T13:46:15.245Z,29.43
2017-09-28T13:48:43.554Z,30.93
2017-09-28T13:51:11.886Z,32.00
2017-09-28T13:53:40.983Z,29.37
2017-09-28T13:56:10.065Z,29.53
2017-09-28T13:58:38.374Z,31.70
2017-09-28T14:01:07.472Z,32.57
2017-09-28T14:03:36.548Z,29.60
2017-09-28T14:06:04.860Z,31.30
2017-09-28T14:08:33.192Z,29.00
2017-09-28T14:11:01.505Z,28.07
2017-09-28T14:13:30.580Z,30.60
2017-09-28T14:15:59.007Z,29.17
2017-09-28T14:18:27.345Z,28.67
2017-09-28T14:20:55.670Z,25.87
2017-09-28T14:23:23.996Z,27.00
2017-09-28T14:25:52.307Z,24.70
2017-09-28T14:28:20.630Z,24.83
2017-09-28T14:30:49.178Z,25.87
2017-09-28T14:33:17.482Z,28.07
2017-09-28T14:35:45.801Z,30.17
2017-09-28T14:38:14.131Z,30.97
2017-09-28T14:40:43.248Z,29.97
2017-09-28T14:43:11.545Z,32.23
2017-09-28T14:45:39.871Z,33.07
2017-09-28T14:48:08.206Z,31.00
2017-09-28T14:50:37.352Z,32.30
2017-09-28T14:53:05.677Z,34.20
2017-09-28T14:55:33.968Z,32.40
2017-09-28T14:58:02.283Z,31.07
2017-09-28T15:00:30.599Z,32.27
2017-09-28T15:02:59.677Z,32.83
2017-09-28T15:05:27.998Z,32.93
2017-09-28T15:07:57.113Z,33.13
2017-09-28T15:10:25.439Z,33.97
2017-09-28T15:12:53.784Z,33.70
2017-09-28T15:15:22.092Z,35.07
2017-09-28T15:17:50.424Z,35.37
2017-09-28T15:20:18.740Z,35.10
2017-09-28T15:22:47.119Z,33.67
2017-09-28T15:25:15.434Z,35.77
2017-09-28T15:27:43.754Z,35.47
2017-09-28T15:30:12.098Z,34.23
2017-09-28T15:32:40.432Z,32.67
2017-09-28T15:35:08.749Z,35.30
2017-09-28T15:37:37.051Z,35.03
2017-09-28T15:40:05.378Z,39.37
2017-09-28T15:42:33.704Z,37.97
2017-09-28T15:45:02.021Z,38.37
2017-09-28T15:47:31.095Z,46.70
2017-09-28T15:49:59.434Z,61.27
2017-09-28T15:52:27.789Z,44.67
2017-09-28T15:54:56.068Z,63.87
2017-09-28T15:57:25.164Z,52.87
2017-09-28T15:59:54.221Z,71.20
2017-09-28T16:02:22.521Z,41.93
2017-09-28T16:04:50.863Z,37.43
2017-09-28T16:07:19.177Z,46.50
2017-09-28T16:09:47.494Z,39.40
2017-09-28T16:12:15.824Z,36.20
2017-09-28T16:14:44.130Z,35.70
2017-09-28T16:17:12.429Z,35.27
2017-09-28T16:19:41.523Z,33.60
2017-09-28T16:22:10.654Z,35.60
2017-09-28T16:24:38.991Z,36.67
2017-09-28T16:27:07.304Z,37.53
2017-09-28T16:29:35.610Z,37.63
2017-09-28T16:32:03.927Z,37.67
2017-09-28T16:34:32.266Z,37.20
2017-09-28T16:37:00.571Z,37.33
2017-09-28T16:39:28.863Z,39.80
2017-09-28T16:41:57.182Z,40.00
2017-09-28T16:44:26.276Z,41.40
2017-09-28T16:46:55.379Z,41.10
2017-09-28T16:49:24.482Z,66.40
2017-09-28T16:51:53.567Z,42.80
2017-09-28T16:54:22.828Z,41.27
2017-09-28T16:56:51.141Z,40.10
2017-09-28T16:59:20.246Z,40.10
2017-09-28T17:01:50.053Z,38.20
2017-09-28T17:04:18.340Z,40.63
2017-09-28T17:06:46.666Z,40.07
2017-09-28T17:09:14.993Z,40.93
2017-09-28T17:11:43.310Z,43.87
2017-09-28T17:14:12.412Z,73.00
2017-09-28T17:16:41.520Z,69.87
2017-09-28T17:19:09.835Z,68.67
2017-09-28T17:21:38.135Z,68.67
2017-09-28T17:24:06.460Z,97.07
2017-09-28T17:26:35.540Z,79.20
2017-09-28T17:29:04.607Z,57.10
2017-09-28T17:31:32.924Z,41.53
2017-09-28T17:34:01.997Z,55.50
2017-09-28T17:36:30.437Z,70.03
2017-09-28T17:38:58.773Z,54.30
2017-09-28T17:41:27.106Z,62.77
2017-09-28T17:43:55.421Z,50.40
2017-09-28T17:46:23.735Z,43.20
2017-09-28T17:48:52.817Z,54.90
2017-09-28T17:51:21.133Z,49.57
2017-09-28T17:53:49.438Z,49.90
2017-09-28T17:56:17.751Z,46.13
2017-09-28T17:58:46.097Z,61.37
2017-09-28T18:01:14.404Z,52.60
2017-09-28T18:03:42.707Z,54.50
2017-09-28T18:06:11.022Z,46.87
2017-09-28T18:08:39.334Z,43.27
2017-09-28T18:11:07.673Z,43.13
2017-09-28T18:13:36.750Z,37.83
2017-09-28T18:16:05.817Z,39.83
2017-09-28T18:18:35.171Z,40.47
2017-09-28T18:21:04.261Z,38.07
2017-09-28T18:23:32.570Z,41.17
2017-09-28T18:26:00.882Z,41.60
2017-09-28T18:28:29.199Z,37.23
2017-09-28T18:30:57.528Z,40.77
2017-09-28T18:33:25.829Z,42.20
2017-09-28T18:35:54.185Z,38.93
2017-09-28T18:38:22.483Z,37.23
2017-09-28T18:40:50.785Z,39.70
2017-09-28T18:43:19.112Z,38.33
2017-09-28T18:45:48.183Z,41.73
2017-09-28T18:48:16.487Z,39.30
2017-09-28T18:50:45.587Z,38.00
2017-09-28T18:53:14.676Z,39.60
2017-09-28T18:55:42.990Z,38.13
2017-09-28T18:58:11.293Z,37.43
2017-09-28T19:00:39.614Z,37.20
2017-09-28T19:03:08.714Z,44.07
2017-09-28T19:05:37.036Z,38.33
2017-09-28T19:08:05.341Z,41.20
2017-09-28T19:10:33.667Z,42.37
2017-09-28T19:13:01.981Z,44.00
2017-09-28T19:15:30.299Z,37.50
2017-09-28T19:17:58.613Z,37.87
2017-09-28T19:20:27.294Z,46.63
2017-09-28T19:22:55.613Z,51.60
2017-09-28T19:25:23.929Z,40.90
2017-09-28T19:27:52.229Z,44.57
2017-09-28T19:30:20.573Z,43.23
2017-09-28T19:32:48.868Z,44.37
2017-09-28T19:35:17.883Z,43.17
2017-09-28T19:37:46.207Z,49.30
2017-09-28T19:40:15.282Z,40.97
2017-09-28T19:42:43.597Z,43.43
2017-09-28T19:45:11.923Z,46.07
2017-09-28T19:47:40.239Z,44.67
2017-09-28T19:50:08.557Z,43.40
2017-09-28T19:52:37.582Z,43.70
2017-09-28T19:55:05.889Z,40.47
2017-09-28T19:57:34.219Z,43.40
2017-09-28T20:00:02.538Z,45.80
2017-09-28T20:02:30.836Z,42.43
2017-09-28T20:04:59.158Z,50.20
2017-09-28T20:07:27.493Z,49.13
2017-09-28T20:09:55.811Z,43.47
2017-09-28T20:12:24.140Z,43.80
2017-09-28T20:14:52.464Z,44.60
2017-09-28T20:17:21.539Z,42.10
2017-09-28T20:19:50.626Z,44.90
2017-09-28T20:22:18.935Z,54.17
2017-09-28T20:24:47.252Z,50.77
2017-09-28T20:27:15.583Z,44.60
2017-09-28T20:29:45.500Z,53.33
2017-09-28T20:32:13.805Z,50.27
2017-09-28T20:34:42.893Z,54.50
2017-09-28T20:37:11.215Z,52.60
2017-09-28T20:39:39.525Z,54.17
2017-09-28T20:42:07.837Z,48.47
2017-09-28T20:44:36.159Z,51.90
2017-09-28T20:47:04.462Z,55.17
2017-09-28T20:49:32.775Z,48.20
2017-09-28T20:52:01.110Z,45.17
2017-09-28T20:54:30.019Z,50.87
2017-09-28T20:56:58.331Z,52.47
2017-09-28T20:59:27.412Z,54.57
2017-09-28T21:01:55.766Z,52.10
2017-09-28T21:04:24.125Z,48.33
2017-09-28T21:06:53.213Z,50.60
2017-09-28T21:09:22.325Z,52.50
2017-09-28T21:11:51.398Z,49.60
2017-09-28T21:14:19.710Z,54.67
2017-09-28T21:16:48.025Z,57.83
2017-09-28T21:19:16.371Z,48.73
2017-09-28T21:21:44.666Z,53.37
2017-09-28T21:24:12.965Z,50.47
2017-09-28T21:26:41.277Z,50.10
2017-09-28T21:29:09.602Z,54.87
2017-09-28T21:31:37.899Z,54.70
2017-09-28T21:34:06.244Z,59.63
2017-09-28T21:36:35.335Z,56.90
2017-09-28T21:39:03.649Z,54.67
2017-09-28T21:41:31.959Z,57.40
2017-09-28T21:44:00.340Z,59.50
2017-09-28T21:46:28.642Z,53.20
2017-09-28T21:48:56.945Z,58.30
2017-09-28T21:51:26.032Z,54.17
2017-09-28T21:53:54.545Z,55.53
2017-09-28T21:56:23.612Z,55.97
2017-09-28T21:58:51.920Z,68.23
2017-09-28T22:01:20.986Z,60.30
2017-09-28T22:03:49.309Z,59.10
2017-09-28T22:06:18.373Z,68.40
2017-09-28T22:08:46.682Z,67.10
2017-09-28T22:11:15.789Z,72.23
2017-09-28T22:13:44.859Z,69.63
2017-09-28T22:16:13.168Z,67.97
2017-09-28T22:18:42.241Z,81.37
2017-09-28T22:21:10.589Z,74.83
2017-09-28T22:23:38.959Z,62.73
2017-09-28T22:26:07.281Z,72.70
2017-09-28T22:28:35.614Z,61.13
2017-09-28T22:31:03.940Z,62.87
2017-09-28T22:33:32.256Z,58.10
2017-09-28T22:36:01.325Z,56.30
2017-09-28T22:38:29.625Z,59.57
2017-09-28T22:40:57.937Z,57.30
2017-09-28T22:43:26.241Z,56.03
2017-09-28T22:45:54.542Z,57.00
2017-09-28T22:48:22.874Z,62.40
2017-09-28T22:50:51.940Z,62.40
2017-09-28T22:53:20.257Z,70.37
2017-09-28T22:55:48.571Z,70.00
2017-09-28T22:58:16.902Z,58.67
2017-09-28T23:00:45.970Z,58.90
2017-09-28T23:03:14.274Z,58.43
2017-09-28T23:05:42.595Z,59.40
2017-09-28T23:08:10.906Z,55.93
2017-09-28T23:10:39.219Z,47.27
2017-09-28T23:13:08.230Z,52.80
2017-09-28T23:15:37.314Z,49.57
2017-09-28T23:18:05.642Z,53.83
2017-09-28T23:20:33.964Z,51.63
2017-09-28T23:23:02.262Z,49.33
2017-09-28T23:25:30.591Z,56.37
2017-09-28T23:27:58.902Z,46.73
2017-09-28T23:30:27.195Z,50.90
2017-09-28T23:32:56.346Z,56.10
2017-09-28T23:35:24.704Z,61.83
2017-09-28T23:37:53.802Z,47.83
2017-09-28T23:40:22.864Z,53.47
2017-09-28T23:42:51.184Z,50.37
2017-09-28T23:45:20.280Z,41.17
2017-09-28T23:47:49.472Z,44.40
2017-09-28T23:50:19.378Z,47.20
2017-09-28T23:52:47.701Z,53.37
2017-09-28T23:55:16.026Z,53.10
2017-09-28T23:57:44.329Z,45.00
